sensor_id;sensor_type;location;lat;lon;timestamp;temperature;humidity
20998;DHT22;10657;51.276;6.390;2022-12-10T00:01:16;1.40;99.90
20998;DHT22;10657;51.276;6.390;2022-12-10T00:03:44;1.50;99.90
20998;DHT22;10657;51.276;6.390;2022-12-10T00:06:15;1.60;99.90
20998;DHT22;10657;51.276;6.390;2022-12-10T00:08:41;1.40;99.90
20998;DHT22;10657;51.276;6.390;2022-12-10T00:11:10;1.30;99.90
20998;DHT22;10657;51.276;6.390;2022-12-10T00:13:37;1.10;99.90
20998;DHT22;10657;51.276;6.390;2022-12-10T00:16:07;1.10;99.90
20998;DHT22;10657;51.276;6.390;2022-12-10T00:18:35;1.20;99.90
20998;DHT22;10657;51.276;6.390;2022-12-10T00:21:06;1.10;99.90
20998;DHT22;10657;51.276;6.390;2022-12-10T00:23:34;1.00;99.90
20998;DHT22;10657;51.276;6.390;2022-12-10T00:26:04;0.90;99.90
20998;DHT22;10657;51.276;6.390;2022-12-10T00:28:31;1.00;99.90
20998;DHT22;10657;51.276;6.390;2022-12-10T00:31:07;1.10;99.90
20998;DHT22;10657;51.276;6.390;2022-12-10T00:33:35;1.20;99.90
20998;DHT22;10657;51.276;6.390;2022-12-10T00:36:07;1.20;99.90
20998;DHT22;10657;51.276;6.390;2022-12-10T00:38:34;1.10;99.90
20998;DHT22;10657;51.276;6.390;2022-12-10T00:41:02;1.00;99.90
20998;DHT22;10657;51.276;6.390;2022-12-10T00:43:29;1.00;99.90
20998;DHT22;10657;51.276;6.390;2022-12-10T00:45:56;1.00;99.90
20998;DHT22;10657;51.276;6.390;2022-12-10T00:48:23;1.00;99.90
20998;DHT22;10657;51.276;6.390;2022-12-10T00:50:57;1.00;99.90
20998;DHT22;10657;51.276;6.390;2022-12-10T00:53:25;1.10;99.90
20998;DHT22;10657;51.276;6.390;2022-12-10T00:55:53;1.10;99.90
20998;DHT22;10657;51.276;6.390;2022-12-10T00:58:20;1.10;99.90
20998;DHT22;10657;51.276;6.390;2022-12-10T01:00:48;0.80;99.90
20998;DHT22;10657;51.276;6.390;2022-12-10T01:03:15;0.90;99.90
20998;DHT22;10657;51.276;6.390;2022-12-10T01:05:41;0.70;99.90
20998;DHT22;10657;51.276;6.390;2022-12-10T01:08:08;0.80;99.90
20998;DHT22;10657;51.276;6.390;2022-12-10T01:10:35;0.90;99.90
20998;DHT22;10657;51.276;6.390;2022-12-10T01:13:02;0.90;99.90
20998;DHT22;10657;51.276;6.390;2022-12-10T01:15:29;0.90;99.90
20998;DHT22;10657;51.276;6.390;2022-12-10T01:17:56;1.00;99.90
20998;DHT22;10657;51.276;6.390;2022-12-10T01:20:22;1.00;99.90
20998;DHT22;10657;51.276;6.390;2022-12-10T01:22:49;0.80;99.90
20998;DHT22;10657;51.276;6.390;2022-12-10T01:25:16;0.90;99.90
20998;DHT22;10657;51.276;6.390;2022-12-10T01:27:42;0.70;99.90
20998;DHT22;10657;51.276;6.390;2022-12-10T01:30:09;0.70;99.90
20998;DHT22;10657;51.276;6.390;2022-12-10T01:32:36;0.70;99.90
20998;DHT22;10657;51.276;6.390;2022-12-10T01:35:03;0.80;99.90
20998;DHT22;10657;51.276;6.390;2022-12-10T01:37:30;0.90;99.90
20998;DHT22;10657;51.276;6.390;2022-12-10T01:39:56;0.80;99.90
20998;DHT22;10657;51.276;6.390;2022-12-10T01:42:23;0.80;99.90
20998;DHT22;10657;51.276;6.390;2022-12-10T01:44:57;0.80;99.90
20998;DHT22;10657;51.276;6.390;2022-12-10T01:47:24;0.70;99.90
20998;DHT22;10657;51.276;6.390;2022-12-10T01:49:51;0.80;99.90
20998;DHT22;10657;51.276;6.390;2022-12-10T01:52:18;0.80;99.90
20998;DHT22;10657;51.276;6.390;2022-12-10T01:54:46;0.50;99.90
20998;DHT22;10657;51.276;6.390;2022-12-10T01:57:22;0.60;99.90
20998;DHT22;10657;51.276;6.390;2022-12-10T02:00:02;0.60;99.90
20998;DHT22;10657;51.276;6.390;2022-12-10T02:02:45;0.60;99.90
20998;DHT22;10657;51.276;6.390;2022-12-10T02:05:28;0.70;99.90
20998;DHT22;10657;51.276;6.390;2022-12-10T02:08:19;0.70;99.90
20998;DHT22;10657;51.276;6.390;2022-12-10T02:13:31;0.90;99.90
20998;DHT22;10657;51.276;6.390;2022-12-10T02:16:08;1.00;99.90
20998;DHT22;10657;51.276;6.390;2022-12-10T02:18:38;1.10;99.90
20998;DHT22;10657;51.276;6.390;2022-12-10T02:21:16;1.00;99.90
20998;DHT22;10657;51.276;6.390;2022-12-10T02:23:54;1.00;99.90
20998;DHT22;10657;51.276;6.390;2022-12-10T02:29:24;1.20;99.90
20998;DHT22;10657;51.276;6.390;2022-12-10T02:34:56;1.20;99.90
20998;DHT22;10657;51.276;6.390;2022-12-10T02:37:29;1.10;99.90
20998;DHT22;10657;51.276;6.390;2022-12-10T02:39:59;1.10;99.90
20998;DHT22;10657;51.276;6.390;2022-12-10T02:42:30;1.10;99.90
20998;DHT22;10657;51.276;6.390;2022-12-10T02:44:57;1.10;99.90
20998;DHT22;10657;51.276;6.390;2022-12-10T02:47:25;1.20;99.90
20998;DHT22;10657;51.276;6.390;2022-12-10T02:49:53;1.20;99.90
20998;DHT22;10657;51.276;6.390;2022-12-10T02:52:22;1.20;99.90
20998;DHT22;10657;51.276;6.390;2022-12-10T02:54:49;1.30;99.90
20998;DHT22;10657;51.276;6.390;2022-12-10T02:57:30;1.20;99.90
20998;DHT22;10657;51.276;6.390;2022-12-10T03:00:14;1.20;99.90
20998;DHT22;10657;51.276;6.390;2022-12-10T03:08:16;1.40;99.90
20998;DHT22;10657;51.276;6.390;2022-12-10T03:10:55;1.30;99.90
20998;DHT22;10657;51.276;6.390;2022-12-10T03:13:28;1.20;99.90
20998;DHT22;10657;51.276;6.390;2022-12-10T03:15:56;1.10;99.90
20998;DHT22;10657;51.276;6.390;2022-12-10T03:18:25;0.90;99.90
20998;DHT22;10657;51.276;6.390;2022-12-10T03:20:54;1.10;99.90
20998;DHT22;10657;51.276;6.390;2022-12-10T03:23:24;1.10;99.90
20998;DHT22;10657;51.276;6.390;2022-12-10T03:25:52;1.10;99.90
20998;DHT22;10657;51.276;6.390;2022-12-10T03:28:21;1.10;99.90
20998;DHT22;10657;51.276;6.390;2022-12-10T03:30:49;1.10;99.90
20998;DHT22;10657;51.276;6.390;2022-12-10T03:33:17;1.10;99.90
20998;DHT22;10657;51.276;6.390;2022-12-10T03:35:45;1.30;99.90
20998;DHT22;10657;51.276;6.390;2022-12-10T03:38:12;1.30;99.90
20998;DHT22;10657;51.276;6.390;2022-12-10T03:40:40;1.20;99.90
20998;DHT22;10657;51.276;6.390;2022-12-10T03:43:06;1.30;99.90
20998;DHT22;10657;51.276;6.390;2022-12-10T03:45:33;1.10;99.90
20998;DHT22;10657;51.276;6.390;2022-12-10T03:47:59;1.20;99.90
20998;DHT22;10657;51.276;6.390;2022-12-10T03:50:26;1.20;99.90
20998;DHT22;10657;51.276;6.390;2022-12-10T03:52:53;1.10;99.90
20998;DHT22;10657;51.276;6.390;2022-12-10T03:55:19;1.10;99.90
20998;DHT22;10657;51.276;6.390;2022-12-10T03:57:46;1.10;99.90
20998;DHT22;10657;51.276;6.390;2022-12-10T04:00:13;1.20;99.90
20998;DHT22;10657;51.276;6.390;2022-12-10T04:02:40;1.20;99.90
20998;DHT22;10657;51.276;6.390;2022-12-10T04:05:07;0.70;99.90
20998;DHT22;10657;51.276;6.390;2022-12-10T04:07:34;0.80;99.90
20998;DHT22;10657;51.276;6.390;2022-12-10T04:10:02;0.90;99.90
20998;DHT22;10657;51.276;6.390;2022-12-10T04:12:28;0.80;99.90
20998;DHT22;10657;51.276;6.390;2022-12-10T04:14:55;0.90;99.90
20998;DHT22;10657;51.276;6.390;2022-12-10T04:17:40;0.90;99.90
20998;DHT22;10657;51.276;6.390;2022-12-10T04:20:07;0.90;99.90
20998;DHT22;10657;51.276;6.390;2022-12-10T04:22:53;0.80;99.90
20998;DHT22;10657;51.276;6.390;2022-12-10T04:25:39;0.80;99.90
20998;DHT22;10657;51.276;6.390;2022-12-10T04:28:24;0.80;99.90
20998;DHT22;10657;51.276;6.390;2022-12-10T04:30:51;0.70;99.90
20998;DHT22;10657;51.276;6.390;2022-12-10T04:33:18;0.60;99.90
20998;DHT22;10657;51.276;6.390;2022-12-10T04:35:44;0.70;99.90
20998;DHT22;10657;51.276;6.390;2022-12-10T04:38:11;0.70;99.90
20998;DHT22;10657;51.276;6.390;2022-12-10T04:40:37;0.70;99.90
20998;DHT22;10657;51.276;6.390;2022-12-10T04:43:04;0.60;99.90
20998;DHT22;10657;51.276;6.390;2022-12-10T04:45:34;0.70;99.90
20998;DHT22;10657;51.276;6.390;2022-12-10T04:48:01;0.80;99.90
20998;DHT22;10657;51.276;6.390;2022-12-10T04:50:27;0.80;99.90
20998;DHT22;10657;51.276;6.390;2022-12-10T04:52:54;0.80;99.90
20998;DHT22;10657;51.276;6.390;2022-12-10T04:55:20;0.70;99.90
20998;DHT22;10657;51.276;6.390;2022-12-10T04:57:47;0.50;99.90
20998;DHT22;10657;51.276;6.390;2022-12-10T05:00:14;0.60;99.90
20998;DHT22;10657;51.276;6.390;2022-12-10T05:02:40;0.20;99.90
20998;DHT22;10657;51.276;6.390;2022-12-10T05:05:07;0.10;99.90
20998;DHT22;10657;51.276;6.390;2022-12-10T05:07:33;0.10;99.90
20998;DHT22;10657;51.276;6.390;2022-12-10T05:10:00;0.20;99.90
20998;DHT22;10657;51.276;6.390;2022-12-10T05:12:27;0.40;99.90
20998;DHT22;10657;51.276;6.390;2022-12-10T05:14:54;0.40;99.90
20998;DHT22;10657;51.276;6.390;2022-12-10T05:17:21;0.40;99.90
20998;DHT22;10657;51.276;6.390;2022-12-10T05:19:47;0.50;99.90
20998;DHT22;10657;51.276;6.390;2022-12-10T05:22:14;0.50;99.90
20998;DHT22;10657;51.276;6.390;2022-12-10T05:24:59;0.40;99.90
20998;DHT22;10657;51.276;6.390;2022-12-10T05:27:31;0.50;99.90
20998;DHT22;10657;51.276;6.390;2022-12-10T05:29:58;0.50;99.90
20998;DHT22;10657;51.276;6.390;2022-12-10T05:32:24;0.60;99.90
20998;DHT22;10657;51.276;6.390;2022-12-10T05:34:51;0.60;99.90
20998;DHT22;10657;51.276;6.390;2022-12-10T05:37:17;0.50;99.90
20998;DHT22;10657;51.276;6.390;2022-12-10T05:39:44;0.50;99.90
20998;DHT22;10657;51.276;6.390;2022-12-10T05:42:11;0.50;99.90
20998;DHT22;10657;51.276;6.390;2022-12-10T05:44:37;0.50;99.90
20998;DHT22;10657;51.276;6.390;2022-12-10T05:47:04;0.50;99.90
20998;DHT22;10657;51.276;6.390;2022-12-10T05:49:30;0.60;99.90
20998;DHT22;10657;51.276;6.390;2022-12-10T05:51:57;0.50;99.90
20998;DHT22;10657;51.276;6.390;2022-12-10T05:54:24;0.50;99.90
20998;DHT22;10657;51.276;6.390;2022-12-10T05:56:50;0.50;99.90
20998;DHT22;10657;51.276;6.390;2022-12-10T05:59:17;0.50;99.90
20998;DHT22;10657;51.276;6.390;2022-12-10T06:01:44;0.60;99.90
20998;DHT22;10657;51.276;6.390;2022-12-10T06:04:11;0.60;99.90
20998;DHT22;10657;51.276;6.390;2022-12-10T06:06:39;0.60;99.90
20998;DHT22;10657;51.276;6.390;2022-12-10T06:09:07;0.50;99.90
20998;DHT22;10657;51.276;6.390;2022-12-10T06:11:36;0.40;99.90
20998;DHT22;10657;51.276;6.390;2022-12-10T06:14:03;0.40;99.90
20998;DHT22;10657;51.276;6.390;2022-12-10T06:16:30;0.50;99.90
20998;DHT22;10657;51.276;6.390;2022-12-10T06:18:57;0.40;99.90
20998;DHT22;10657;51.276;6.390;2022-12-10T06:21:25;0.20;99.90
20998;DHT22;10657;51.276;6.390;2022-12-10T06:23:52;0.00;99.90
20998;DHT22;10657;51.276;6.390;2022-12-10T06:26:24;0.10;99.90
20998;DHT22;10657;51.276;6.390;2022-12-10T06:28:52;0.10;99.90
20998;DHT22;10657;51.276;6.390;2022-12-10T06:31:19;0.20;99.90
20998;DHT22;10657;51.276;6.390;2022-12-10T06:33:46;0.20;99.90
20998;DHT22;10657;51.276;6.390;2022-12-10T06:36:15;0.40;99.90
20998;DHT22;10657;51.276;6.390;2022-12-10T06:38:42;0.40;99.90
20998;DHT22;10657;51.276;6.390;2022-12-10T06:41:12;0.40;99.90
20998;DHT22;10657;51.276;6.390;2022-12-10T06:43:39;0.30;99.90
20998;DHT22;10657;51.276;6.390;2022-12-10T06:46:15;0.10;99.90
20998;DHT22;10657;51.276;6.390;2022-12-10T06:48:42;0.00;99.90
20998;DHT22;10657;51.276;6.390;2022-12-10T06:51:10;0.10;99.90
20998;DHT22;10657;51.276;6.390;2022-12-10T06:53:37;0.20;99.90
20998;DHT22;10657;51.276;6.390;2022-12-10T06:56:06;0.00;99.90
20998;DHT22;10657;51.276;6.390;2022-12-10T06:58:34;0.00;99.90
20998;DHT22;10657;51.276;6.390;2022-12-10T07:01:05;0.10;99.90
20998;DHT22;10657;51.276;6.390;2022-12-10T07:03:33;0.40;99.90
20998;DHT22;10657;51.276;6.390;2022-12-10T07:06:00;0.30;99.90
20998;DHT22;10657;51.276;6.390;2022-12-10T07:08:28;0.40;99.90
20998;DHT22;10657;51.276;6.390;2022-12-10T07:10:55;0.30;99.90
20998;DHT22;10657;51.276;6.390;2022-12-10T07:13:22;0.20;99.90
20998;DHT22;10657;51.276;6.390;2022-12-10T07:15:55;0.20;99.90
20998;DHT22;10657;51.276;6.390;2022-12-10T07:18:22;0.10;99.90
20998;DHT22;10657;51.276;6.390;2022-12-10T07:20:49;0.20;99.90
20998;DHT22;10657;51.276;6.390;2022-12-10T07:23:15;0.20;99.90
20998;DHT22;10657;51.276;6.390;2022-12-10T07:25:42;0.30;99.90
20998;DHT22;10657;51.276;6.390;2022-12-10T07:28:09;0.30;99.90
20998;DHT22;10657;51.276;6.390;2022-12-10T07:30:36;0.50;99.90
20998;DHT22;10657;51.276;6.390;2022-12-10T07:33:02;0.70;99.90
20998;DHT22;10657;51.276;6.390;2022-12-10T07:35:29;0.70;99.90
20998;DHT22;10657;51.276;6.390;2022-12-10T07:37:56;0.50;99.90
20998;DHT22;10657;51.276;6.390;2022-12-10T07:40:22;0.50;99.90
20998;DHT22;10657;51.276;6.390;2022-12-10T07:42:49;0.70;99.90
20998;DHT22;10657;51.276;6.390;2022-12-10T07:45:16;0.70;99.90
20998;DHT22;10657;51.276;6.390;2022-12-10T07:47:43;0.70;99.90
20998;DHT22;10657;51.276;6.390;2022-12-10T07:50:09;0.50;99.90
20998;DHT22;10657;51.276;6.390;2022-12-10T07:52:37;0.50;99.90
20998;DHT22;10657;51.276;6.390;2022-12-10T07:55:04;0.50;99.90
20998;DHT22;10657;51.276;6.390;2022-12-10T07:57:31;0.60;99.90
20998;DHT22;10657;51.276;6.390;2022-12-10T07:59:58;0.70;99.90
20998;DHT22;10657;51.276;6.390;2022-12-10T08:02:25;0.60;99.90
20998;DHT22;10657;51.276;6.390;2022-12-10T08:04:51;0.40;99.90
20998;DHT22;10657;51.276;6.390;2022-12-10T08:07:18;0.40;99.90
20998;DHT22;10657;51.276;6.390;2022-12-10T08:09:45;0.30;99.90
20998;DHT22;10657;51.276;6.390;2022-12-10T08:12:11;0.40;99.90
20998;DHT22;10657;51.276;6.390;2022-12-10T08:14:38;0.50;99.90
20998;DHT22;10657;51.276;6.390;2022-12-10T08:17:04;0.60;99.90
20998;DHT22;10657;51.276;6.390;2022-12-10T08:19:31;0.30;99.90
20998;DHT22;10657;51.276;6.390;2022-12-10T08:21:58;0.50;99.90
20998;DHT22;10657;51.276;6.390;2022-12-10T08:24:24;0.40;99.90
20998;DHT22;10657;51.276;6.390;2022-12-10T08:26:51;0.50;99.90
20998;DHT22;10657;51.276;6.390;2022-12-10T08:29:18;0.60;99.90
20998;DHT22;10657;51.276;6.390;2022-12-10T08:31:44;0.60;99.90
20998;DHT22;10657;51.276;6.390;2022-12-10T08:34:17;0.50;99.90
20998;DHT22;10657;51.276;6.390;2022-12-10T08:36:45;0.50;99.90
20998;DHT22;10657;51.276;6.390;2022-12-10T08:39:12;0.70;99.90
20998;DHT22;10657;51.276;6.390;2022-12-10T08:41:45;0.60;99.90
20998;DHT22;10657;51.276;6.390;2022-12-10T08:44:12;0.60;99.90
20998;DHT22;10657;51.276;6.390;2022-12-10T08:46:39;0.50;99.90
20998;DHT22;10657;51.276;6.390;2022-12-10T08:49:06;0.60;99.90
20998;DHT22;10657;51.276;6.390;2022-12-10T08:51:36;0.60;99.90
20998;DHT22;10657;51.276;6.390;2022-12-10T08:54:03;0.50;99.90
20998;DHT22;10657;51.276;6.390;2022-12-10T08:56:29;0.80;99.90
20998;DHT22;10657;51.276;6.390;2022-12-10T08:58:56;0.90;99.90
20998;DHT22;10657;51.276;6.390;2022-12-10T09:01:23;1.00;99.90
20998;DHT22;10657;51.276;6.390;2022-12-10T09:03:50;1.00;99.90
20998;DHT22;10657;51.276;6.390;2022-12-10T09:06:19;0.80;99.90
20998;DHT22;10657;51.276;6.390;2022-12-10T09:08:47;0.70;99.90
20998;DHT22;10657;51.276;6.390;2022-12-10T09:13:45;0.70;99.90
20998;DHT22;10657;51.276;6.390;2022-12-10T09:16:12;0.70;99.90
20998;DHT22;10657;51.276;6.390;2022-12-10T09:18:39;0.60;99.90
20998;DHT22;10657;51.276;6.390;2022-12-10T09:21:08;0.60;99.90
20998;DHT22;10657;51.276;6.390;2022-12-10T09:23:35;0.50;99.90
20998;DHT22;10657;51.276;6.390;2022-12-10T09:26:06;0.50;99.90
20998;DHT22;10657;51.276;6.390;2022-12-10T09:28:33;0.50;99.90
20998;DHT22;10657;51.276;6.390;2022-12-10T09:31:00;0.50;99.90
20998;DHT22;10657;51.276;6.390;2022-12-10T09:33:28;0.30;99.90
20998;DHT22;10657;51.276;6.390;2022-12-10T09:35:54;0.40;99.90
20998;DHT22;10657;51.276;6.390;2022-12-10T09:38:22;0.50;99.90
20998;DHT22;10657;51.276;6.390;2022-12-10T09:41:03;0.60;99.90
20998;DHT22;10657;51.276;6.390;2022-12-10T09:46:53;0.50;99.90
20998;DHT22;10657;51.276;6.390;2022-12-10T09:52:10;0.70;99.90
20998;DHT22;10657;51.276;6.390;2022-12-10T09:54:50;0.60;99.90
20998;DHT22;10657;51.276;6.390;2022-12-10T09:57:22;0.70;99.90
20998;DHT22;10657;51.276;6.390;2022-12-10T09:59:51;0.70;99.90
20998;DHT22;10657;51.276;6.390;2022-12-10T10:02:22;0.60;99.90
20998;DHT22;10657;51.276;6.390;2022-12-10T10:04:55;0.50;99.90
20998;DHT22;10657;51.276;6.390;2022-12-10T10:07:25;0.30;99.90
20998;DHT22;10657;51.276;6.390;2022-12-10T10:10:07;0.20;99.90
20998;DHT22;10657;51.276;6.390;2022-12-10T10:12:39;0.30;99.90
20998;DHT22;10657;51.276;6.390;2022-12-10T10:15:13;0.30;99.90
20998;DHT22;10657;51.276;6.390;2022-12-10T10:17:42;0.40;99.90
20998;DHT22;10657;51.276;6.390;2022-12-10T10:20:12;0.40;99.90
20998;DHT22;10657;51.276;6.390;2022-12-10T10:22:40;0.40;99.90
20998;DHT22;10657;51.276;6.390;2022-12-10T10:25:18;0.40;99.90
20998;DHT22;10657;51.276;6.390;2022-12-10T10:27:45;0.50;99.90
20998;DHT22;10657;51.276;6.390;2022-12-10T10:30:20;0.70;99.90
20998;DHT22;10657;51.276;6.390;2022-12-10T10:32:52;0.80;99.90
20998;DHT22;10657;51.276;6.390;2022-12-10T10:35:32;0.70;99.90
20998;DHT22;10657;51.276;6.390;2022-12-10T10:38:16;0.70;99.90
20998;DHT22;10657;51.276;6.390;2022-12-10T10:40:49;0.90;99.90
20998;DHT22;10657;51.276;6.390;2022-12-10T10:43:23;0.90;99.90
20998;DHT22;10657;51.276;6.390;2022-12-10T10:45:58;1.10;99.90
20998;DHT22;10657;51.276;6.390;2022-12-10T10:48:26;1.20;99.90
20998;DHT22;10657;51.276;6.390;2022-12-10T10:50:56;1.30;99.90
20998;DHT22;10657;51.276;6.390;2022-12-10T10:56:14;1.20;99.90
20998;DHT22;10657;51.276;6.390;2022-12-10T10:58:55;1.00;99.90
20998;DHT22;10657;51.276;6.390;2022-12-10T11:01:25;1.10;99.90
20998;DHT22;10657;51.276;6.390;2022-12-10T11:03:57;1.10;99.90
20998;DHT22;10657;51.276;6.390;2022-12-10T11:06:25;0.90;99.90
20998;DHT22;10657;51.276;6.390;2022-12-10T11:08:56;1.00;99.90
20998;DHT22;10657;51.276;6.390;2022-12-10T11:11:42;0.90;99.90
20998;DHT22;10657;51.276;6.390;2022-12-10T11:16:50;1.00;99.90
20998;DHT22;10657;51.276;6.390;2022-12-10T11:19:26;1.20;99.90
20998;DHT22;10657;51.276;6.390;2022-12-10T11:21:53;1.30;99.90
20998;DHT22;10657;51.276;6.390;2022-12-10T11:24:19;1.40;99.90
20998;DHT22;10657;51.276;6.390;2022-12-10T11:27:05;1.50;99.90
20998;DHT22;10657;51.276;6.390;2022-12-10T11:30:14;1.50;99.90
20998;DHT22;10657;51.276;6.390;2022-12-10T11:32:53;1.40;99.90
20998;DHT22;10657;51.276;6.390;2022-12-10T11:35:43;1.40;99.90
20998;DHT22;10657;51.276;6.390;2022-12-10T11:38:26;1.20;99.90
20998;DHT22;10657;51.276;6.390;2022-12-10T11:44:05;1.30;99.90
20998;DHT22;10657;51.276;6.390;2022-12-10T11:55:17;1.40;99.90
20998;DHT22;10657;51.276;6.390;2022-12-10T12:00:20;1.60;99.90
20998;DHT22;10657;51.276;6.390;2022-12-10T12:05:57;1.70;99.90
20998;DHT22;10657;51.276;6.390;2022-12-10T12:11:29;1.80;99.90
20998;DHT22;10657;51.276;6.390;2022-12-10T12:14:12;1.70;99.90
20998;DHT22;10657;51.276;6.390;2022-12-10T12:16:48;1.60;99.90
20998;DHT22;10657;51.276;6.390;2022-12-10T12:19:25;1.70;99.90
20998;DHT22;10657;51.276;6.390;2022-12-10T12:21:55;1.70;99.90
20998;DHT22;10657;51.276;6.390;2022-12-10T12:24:35;1.60;99.90
20998;DHT22;10657;51.276;6.390;2022-12-10T12:27:19;1.60;99.90
20998;DHT22;10657;51.276;6.390;2022-12-10T12:35:16;1.80;99.90
20998;DHT22;10657;51.276;6.390;2022-12-10T12:37:59;1.60;99.90
20998;DHT22;10657;51.276;6.390;2022-12-10T12:40:36;1.60;99.90
20998;DHT22;10657;51.276;6.390;2022-12-10T12:43:13;1.60;99.90
20998;DHT22;10657;51.276;6.390;2022-12-10T12:45:49;1.80;99.90
20998;DHT22;10657;51.276;6.390;2022-12-10T12:51:06;1.60;99.90
20998;DHT22;10657;51.276;6.390;2022-12-10T12:53:35;1.50;99.90
20998;DHT22;10657;51.276;6.390;2022-12-10T12:56:07;1.60;99.90
20998;DHT22;10657;51.276;6.390;2022-12-10T12:58:40;1.50;99.90
20998;DHT22;10657;51.276;6.390;2022-12-10T13:01:25;1.60;99.90
20998;DHT22;10657;51.276;6.390;2022-12-10T13:03:55;1.70;99.90
20998;DHT22;10657;51.276;6.390;2022-12-10T13:06:28;1.70;99.90
20998;DHT22;10657;51.276;6.390;2022-12-10T13:09:22;1.70;99.90
20998;DHT22;10657;51.276;6.390;2022-12-10T13:14:36;1.80;99.90
20998;DHT22;10657;51.276;6.390;2022-12-10T13:17:33;1.70;99.90
20998;DHT22;10657;51.276;6.390;2022-12-10T13:20:33;1.60;99.90
20998;DHT22;10657;51.276;6.390;2022-12-10T13:23:04;1.70;99.90
20998;DHT22;10657;51.276;6.390;2022-12-10T13:28:38;2.00;99.90
20998;DHT22;10657;51.276;6.390;2022-12-10T13:37:29;2.10;99.90
20998;DHT22;10657;51.276;6.390;2022-12-10T13:39:33;2.00;99.90
20998;DHT22;10657;51.276;6.390;2022-12-10T13:42:25;1.80;99.90
20998;DHT22;10657;51.276;6.390;2022-12-10T13:47:52;1.90;99.90
20998;DHT22;10657;51.276;6.390;2022-12-10T13:51:09;1.90;99.90
20998;DHT22;10657;51.276;6.390;2022-12-10T14:01:13;1.90;99.90
20998;DHT22;10657;51.276;6.390;2022-12-10T14:06:47;1.70;99.90
20998;DHT22;10657;51.276;6.390;2022-12-10T14:09:33;1.70;99.90
20998;DHT22;10657;51.276;6.390;2022-12-10T14:12:08;1.70;99.90
20998;DHT22;10657;51.276;6.390;2022-12-10T14:14:48;1.80;99.90
20998;DHT22;10657;51.276;6.390;2022-12-10T14:17:33;1.80;99.90
20998;DHT22;10657;51.276;6.390;2022-12-10T14:20:03;1.70;99.90
20998;DHT22;10657;51.276;6.390;2022-12-10T14:25:04;1.90;99.90
20998;DHT22;10657;51.276;6.390;2022-12-10T14:27:33;1.90;99.90
20998;DHT22;10657;51.276;6.390;2022-12-10T14:32:44;1.70;99.90
20998;DHT22;10657;51.276;6.390;2022-12-10T14:35:18;1.50;99.90
20998;DHT22;10657;51.276;6.390;2022-12-10T14:37:53;1.60;99.90
20998;DHT22;10657;51.276;6.390;2022-12-10T14:43:20;1.50;99.90
20998;DHT22;10657;51.276;6.390;2022-12-10T14:45:51;1.70;99.90
20998;DHT22;10657;51.276;6.390;2022-12-10T14:48:19;1.50;99.90
20998;DHT22;10657;51.276;6.390;2022-12-10T14:50:46;1.50;99.90
20998;DHT22;10657;51.276;6.390;2022-12-10T14:53:18;1.50;99.90
20998;DHT22;10657;51.276;6.390;2022-12-10T14:55:57;1.70;99.90
20998;DHT22;10657;51.276;6.390;2022-12-10T14:58:35;1.60;99.90
20998;DHT22;10657;51.276;6.390;2022-12-10T15:01:17;1.40;99.90
20998;DHT22;10657;51.276;6.390;2022-12-10T15:03:47;1.50;99.90
20998;DHT22;10657;51.276;6.390;2022-12-10T15:06:17;1.60;99.90
20998;DHT22;10657;51.276;6.390;2022-12-10T15:08:46;1.60;99.90
20998;DHT22;10657;51.276;6.390;2022-12-10T15:11:18;1.60;99.90
20998;DHT22;10657;51.276;6.390;2022-12-10T15:13:51;1.60;99.90
20998;DHT22;10657;51.276;6.390;2022-12-10T15:16:41;1.40;99.90
20998;DHT22;10657;51.276;6.390;2022-12-10T15:19:21;1.40;99.90
20998;DHT22;10657;51.276;6.390;2022-12-10T15:21:51;1.50;99.90
20998;DHT22;10657;51.276;6.390;2022-12-10T15:24:40;1.50;99.90
20998;DHT22;10657;51.276;6.390;2022-12-10T15:29:42;1.50;99.90
20998;DHT22;10657;51.276;6.390;2022-12-10T15:32:21;1.50;99.90
20998;DHT22;10657;51.276;6.390;2022-12-10T15:34:53;1.30;99.90
20998;DHT22;10657;51.276;6.390;2022-12-10T15:37:24;1.40;99.90
20998;DHT22;10657;51.276;6.390;2022-12-10T15:39:53;1.40;99.90
20998;DHT22;10657;51.276;6.390;2022-12-10T15:42:42;1.40;99.90
20998;DHT22;10657;51.276;6.390;2022-12-10T15:45:26;1.30;99.90
20998;DHT22;10657;51.276;6.390;2022-12-10T15:47:57;1.30;99.90
20998;DHT22;10657;51.276;6.390;2022-12-10T15:50:25;1.20;99.90
20998;DHT22;10657;51.276;6.390;2022-12-10T15:52:52;1.20;99.90
20998;DHT22;10657;51.276;6.390;2022-12-10T15:55:19;1.20;99.90
20998;DHT22;10657;51.276;6.390;2022-12-10T15:57:46;1.40;99.90
20998;DHT22;10657;51.276;6.390;2022-12-10T16:00:21;1.40;99.90
20998;DHT22;10657;51.276;6.390;2022-12-10T16:03:00;1.50;99.90
20998;DHT22;10657;51.276;6.390;2022-12-10T16:05:37;1.40;99.90
20998;DHT22;10657;51.276;6.390;2022-12-10T16:10:46;1.40;99.90
20998;DHT22;10657;51.276;6.390;2022-12-10T16:13:19;1.50;99.90
20998;DHT22;10657;51.276;6.390;2022-12-10T16:15:50;1.50;99.90
20998;DHT22;10657;51.276;6.390;2022-12-10T16:18:17;1.50;99.90
20998;DHT22;10657;51.276;6.390;2022-12-10T16:20:44;1.40;99.90
20998;DHT22;10657;51.276;6.390;2022-12-10T16:23:11;1.40;99.90
20998;DHT22;10657;51.276;6.390;2022-12-10T16:25:41;1.20;99.90
20998;DHT22;10657;51.276;6.390;2022-12-10T16:28:17;1.30;99.90
20998;DHT22;10657;51.276;6.390;2022-12-10T16:30:48;1.20;99.90
20998;DHT22;10657;51.276;6.390;2022-12-10T16:33:17;1.30;99.90
20998;DHT22;10657;51.276;6.390;2022-12-10T16:35:48;1.40;99.90
20998;DHT22;10657;51.276;6.390;2022-12-10T16:38:15;1.50;99.90
20998;DHT22;10657;51.276;6.390;2022-12-10T16:40:43;1.40;99.90
20998;DHT22;10657;51.276;6.390;2022-12-10T16:43:21;1.30;99.90
20998;DHT22;10657;51.276;6.390;2022-12-10T16:45:49;1.30;99.90
20998;DHT22;10657;51.276;6.390;2022-12-10T16:48:17;1.40;99.90
20998;DHT22;10657;51.276;6.390;2022-12-10T16:50:44;1.30;99.90
20998;DHT22;10657;51.276;6.390;2022-12-10T16:53:26;1.50;99.90
20998;DHT22;10657;51.276;6.390;2022-12-10T16:55:55;1.50;99.90
20998;DHT22;10657;51.276;6.390;2022-12-10T16:58:22;1.30;99.90
20998;DHT22;10657;51.276;6.390;2022-12-10T17:00:51;1.40;99.90
20998;DHT22;10657;51.276;6.390;2022-12-10T17:03:23;1.50;99.90
20998;DHT22;10657;51.276;6.390;2022-12-10T17:05:56;1.50;99.90
20998;DHT22;10657;51.276;6.390;2022-12-10T17:08:25;1.40;99.90
20998;DHT22;10657;51.276;6.390;2022-12-10T17:10:53;1.50;99.90
20998;DHT22;10657;51.276;6.390;2022-12-10T17:13:40;1.60;99.90
20998;DHT22;10657;51.276;6.390;2022-12-10T17:16:14;1.60;99.90
20998;DHT22;10657;51.276;6.390;2022-12-10T17:18:42;1.50;99.90
20998;DHT22;10657;51.276;6.390;2022-12-10T17:21:09;1.40;99.90
20998;DHT22;10657;51.276;6.390;2022-12-10T17:23:35;1.40;99.90
20998;DHT22;10657;51.276;6.390;2022-12-10T17:26:02;1.20;99.90
20998;DHT22;10657;51.276;6.390;2022-12-10T17:28:30;1.10;99.90
20998;DHT22;10657;51.276;6.390;2022-12-10T17:30:57;1.10;99.90
20998;DHT22;10657;51.276;6.390;2022-12-10T17:33:24;1.10;99.90
20998;DHT22;10657;51.276;6.390;2022-12-10T17:35:52;1.00;99.90
20998;DHT22;10657;51.276;6.390;2022-12-10T17:38:24;0.80;99.90
20998;DHT22;10657;51.276;6.390;2022-12-10T17:40:52;0.90;99.90
20998;DHT22;10657;51.276;6.390;2022-12-10T17:43:19;0.90;99.90